createdAt,value
2023-02-18T00:01:23.558Z,102260.50
2023-02-18T00:03:51.017Z,102222.72
2023-02-18T00:06:39.914Z,102259.53
2023-02-18T00:09:07.086Z,102253.44
2023-02-18T00:11:37.245Z,102252.31
2023-02-18T00:14:06.958Z,102250.44
2023-02-18T00:16:33.682Z,102237.78
2023-02-18T00:19:03.713Z,102244.47
2023-02-18T00:21:32.368Z,102236.78
2023-02-18T00:23:59.097Z,102251.59
2023-02-18T00:26:26.078Z,102247.97
2023-02-18T00:28:53.177Z,102221.38
2023-02-18T00:31:31.452Z,102246.13
2023-02-18T00:33:59.267Z,102239.75
2023-02-18T00:36:26.568Z,102229.72
2023-02-18T00:38:58.423Z,102229.72
2023-02-18T00:41:29.217Z,102226.09
2023-02-18T00:43:58.108Z,102214.41
2023-02-18T00:46:27.963Z,102214.16
2023-02-18T00:48:55.019Z,102211.31
2023-02-18T00:51:25.429Z,102217.75
2023-02-18T00:53:54.769Z,102217.75
2023-02-18T00:56:23.764Z,102189.44
2023-02-18T00:58:53.218Z,102200.13
2023-02-18T01:01:22.410Z,102197.41
2023-02-18T01:03:49.773Z,102200.75
2023-02-18T01:06:16.588Z,102190.69
2023-02-18T01:08:45.960Z,102191.44
2023-02-18T01:11:12.924Z,102180.88
2023-02-18T01:13:40.599Z,102131.44
2023-02-18T01:16:08.479Z,102179.00
2023-02-18T01:18:35.635Z,102178.88
2023-02-18T01:21:02.259Z,102154.41
2023-02-18T01:23:31.434Z,102175.91
2023-02-18T01:25:58.773Z,102139.00
2023-02-18T01:28:26.039Z,102162.47
2023-02-18T01:30:53.769Z,102186.59
2023-02-18T01:33:21.044Z,102182.09
2023-02-18T01:35:47.923Z,102183.84
2023-02-18T01:38:16.748Z,102180.25
2023-02-18T01:40:51.407Z,102160.59
2023-02-18T01:43:21.167Z,102185.72
2023-02-18T01:45:50.730Z,102178.50
2023-02-18T01:48:45.991Z,102176.16
2023-02-18T01:51:14.328Z,102170.56
2023-02-18T01:53:53.572Z,102176.75
2023-02-18T01:56:27.905Z,102167.81
2023-02-18T01:58:56.959Z,102166.84
2023-02-18T02:01:25.929Z,102156.16
2023-02-18T02:03:55.079Z,102169.56
2023-02-18T02:06:23.716Z,102109.47
2023-02-18T02:08:53.061Z,102081.38
2023-02-18T02:11:52.629Z,102160.47
2023-02-18T02:14:30.987Z,102157.75
2023-02-18T02:17:07.563Z,102133.50
2023-02-18T02:20:11.808Z,102148.31
2023-02-18T02:23:02.414Z,102137.25
2023-02-18T02:25:32.126Z,102141.22
2023-02-18T02:28:16.679Z,102139.38
2023-02-18T02:30:52.243Z,102134.88
2023-02-18T02:33:47.232Z,102121.34
2023-02-18T02:36:24.117Z,102111.38
2023-02-18T02:39:05.771Z,102026.75
2023-02-18T02:42:18.792Z,102105.94
2023-02-18T02:44:56.336Z,102104.47
2023-02-18T02:47:47.338Z,102100.59
2023-02-18T02:50:25.350Z,102085.94
2023-02-18T02:52:58.684Z,102070.16
2023-02-18T02:55:25.776Z,102077.38
2023-02-18T02:57:55.204Z,102072.75
2023-02-18T03:00:32.440Z,102072.63
2023-02-18T03:03:10.935Z,102066.44
2023-02-18T03:06:14.455Z,102053.88
2023-02-18T03:08:44.069Z,102052.28
2023-02-18T03:11:15.897Z,102053.28
2023-02-18T03:14:01.969Z,102033.66
2023-02-18T03:16:47.674Z,102034.53
2023-02-18T03:19:25.841Z,102023.72
2023-02-18T03:21:59.423Z,102008.13
2023-02-18T03:24:39.593Z,102024.84
2023-02-18T03:27:16.124Z,102017.91
2023-02-18T03:29:48.269Z,102014.31
2023-02-18T03:32:21.321Z,102014.44
2023-02-18T03:34:53.311Z,102005.38
2023-02-18T03:37:20.857Z,102005.50
2023-02-18T03:39:53.583Z,101960.34
2023-02-18T03:42:20.179Z,102000.53
2023-02-18T03:44:46.755Z,101996.53
2023-02-18T03:47:13.428Z,101961.84
2023-02-18T03:49:42.965Z,101984.16
2023-02-18T03:52:09.558Z,101988.75
2023-02-18T03:54:36.112Z,101977.31
2023-02-18T03:57:03.337Z,101927.72
2023-02-18T03:59:32.234Z,101963.31
2023-02-18T04:01:58.741Z,101974.34
2023-02-18T04:04:25.358Z,101964.28
2023-02-18T04:06:51.983Z,101968.88
2023-02-18T04:09:20.948Z,101951.78
2023-02-18T04:11:47.480Z,101954.59
2023-02-18T04:14:14.798Z,101905.75
2023-02-18T04:16:41.887Z,101956.47
2023-02-18T04:19:11.056Z,101948.53
2023-02-18T04:21:37.636Z,101928.16
2023-02-18T04:24:06.368Z,101954.00
2023-02-18T04:26:33.006Z,101929.91
2023-02-18T04:28:59.569Z,101948.78
2023-02-18T04:31:31.283Z,101926.97
2023-02-18T04:33:57.939Z,101952.50
2023-02-18T04:36:24.465Z,101824.84
2023-02-18T04:38:53.261Z,101944.56
2023-02-18T04:41:19.873Z,101938.63
2023-02-18T04:43:48.717Z,101868.47
2023-02-18T04:46:15.281Z,101843.16
2023-02-18T04:48:41.844Z,101942.09
2023-02-18T04:51:08.577Z,101922.00
2023-02-18T04:53:37.414Z,101938.50
2023-02-18T04:56:06.935Z,101928.06
2023-02-18T04:58:36.036Z,101939.34
2023-02-18T05:01:04.753Z,101921.75
2023-02-18T05:03:32.100Z,101929.56
2023-02-18T05:05:59.064Z,101928.72
2023-02-18T05:08:25.680Z,101921.16
2023-02-18T05:10:52.403Z,101927.94
2023-02-18T05:13:19.128Z,101903.38
2023-02-18T05:15:45.790Z,101887.13
2023-02-18T05:18:12.404Z,101913.56
2023-02-18T05:20:39.003Z,101900.03
2023-02-18T05:23:05.718Z,101901.13
2023-02-18T05:25:32.443Z,101907.50
2023-02-18T05:28:01.636Z,101915.81
2023-02-18T05:30:28.260Z,101908.84
2023-02-18T05:32:54.824Z,101916.78
2023-02-18T05:35:21.456Z,101855.94
2023-02-18T05:37:48.006Z,101907.13
2023-02-18T05:40:14.525Z,101911.47
2023-02-18T05:42:41.066Z,101904.41
2023-02-18T05:45:10.085Z,101896.09
2023-02-18T05:47:38.974Z,101893.84
2023-02-18T05:50:06.604Z,101889.72
2023-02-18T05:52:33.173Z,101885.41
2023-02-18T05:54:59.705Z,101886.41
2023-02-18T05:57:26.531Z,101893.72
2023-02-18T05:59:53.193Z,101876.75
2023-02-18T06:02:19.837Z,101883.06
2023-02-18T06:04:46.393Z,101881.31
2023-02-18T06:07:15.992Z,101881.31
2023-02-18T06:09:42.572Z,101878.84
2023-02-18T06:12:09.102Z,101870.16
2023-02-18T06:14:35.646Z,101867.78
2023-02-18T06:17:02.155Z,101862.47
2023-02-18T06:19:28.654Z,101859.59
2023-02-18T06:21:56.270Z,101874.28
2023-02-18T06:24:22.874Z,101872.41
2023-02-18T06:26:49.383Z,101840.91
2023-02-18T06:29:15.960Z,101859.25
2023-02-18T06:31:42.730Z,101864.47
2023-02-18T06:34:09.428Z,101844.63
2023-02-18T06:36:36.111Z,101863.13
2023-02-18T06:39:04.847Z,101859.13
2023-02-18T06:41:33.967Z,101842.91
2023-02-18T06:44:02.924Z,101861.97
2023-02-18T06:46:29.536Z,101840.25
2023-02-18T06:48:56.160Z,101856.78
2023-02-18T06:51:24.561Z,101847.63
2023-02-18T06:53:51.144Z,101866.22
2023-02-18T06:56:20.141Z,101871.69
2023-02-18T06:58:49.742Z,101877.16
2023-02-18T07:01:16.281Z,101862.75
2023-02-18T07:03:42.888Z,101869.31
2023-02-18T07:06:09.977Z,101865.88
2023-02-18T07:08:37.700Z,101874.44
2023-02-18T07:11:07.263Z,101853.34
2023-02-18T07:13:33.890Z,101868.06
2023-02-18T07:16:02.783Z,101870.94
2023-02-18T07:18:29.391Z,101857.16
2023-02-18T07:20:55.913Z,101865.88
2023-02-18T07:23:22.487Z,101861.91
2023-02-18T07:25:49.054Z,101880.50
2023-02-18T07:28:18.063Z,101878.88
2023-02-18T07:30:44.644Z,101871.72
2023-02-18T07:33:11.221Z,101897.25
2023-02-18T07:35:37.781Z,101860.81
2023-02-18T07:38:04.772Z,101890.19
2023-02-18T07:40:31.375Z,101887.97
2023-02-18T07:43:00.213Z,101890.44
2023-02-18T07:45:26.973Z,101897.63
2023-02-18T07:47:55.988Z,101875.66
2023-02-18T07:50:27.474Z,101880.13
2023-02-18T07:52:54.096Z,101889.06
2023-02-18T07:55:20.702Z,101863.53
2023-02-18T07:58:07.542Z,101886.81
2023-02-18T08:00:34.169Z,101880.50
2023-02-18T08:03:00.868Z,101821.06
2023-02-18T08:05:27.372Z,101881.09
2023-02-18T08:07:53.891Z,101877.50
2023-02-18T08:10:20.679Z,101881.59
2023-02-18T08:12:47.418Z,101891.50
2023-02-18T08:15:14.166Z,101899.44
2023-02-18T08:17:40.947Z,101887.50
2023-02-18T08:20:08.451Z,101887.00
2023-02-18T08:22:37.866Z,101859.00
2023-02-18T08:25:05.017Z,101878.81
2023-02-18T08:27:33.855Z,101875.47
2023-02-18T08:30:00.564Z,101868.16
2023-02-18T08:32:28.820Z,101879.28
2023-02-18T08:35:00.264Z,101888.97
2023-02-18T08:37:28.220Z,101902.16
2023-02-18T08:39:57.210Z,101902.28
2023-02-18T08:42:26.014Z,101907.00
2023-02-18T08:44:52.623Z,101902.53
2023-02-18T08:48:18.111Z,101876.47
2023-02-18T08:50:13.165Z,101918.91
2023-02-18T08:52:42.152Z,101881.81
2023-02-18T08:55:08.796Z,101871.31
2023-02-18T08:57:35.396Z,101894.38
2023-02-18T09:00:07.056Z,101916.31
2023-02-18T09:02:35.988Z,101911.09
2023-02-18T09:05:05.066Z,101914.09
2023-02-18T09:07:31.661Z,101916.06
2023-02-18T09:09:58.220Z,101909.00
2023-02-18T09:12:24.879Z,101907.41
2023-02-18T09:14:54.391Z,101900.44
2023-02-18T09:17:21.535Z,101892.38
2023-02-18T09:19:50.848Z,101898.72
2023-02-18T09:22:17.516Z,101906.63
2023-02-18T09:24:44.159Z,101891.91
2023-02-18T09:27:11.351Z,101902.19
2023-02-18T09:29:39.898Z,101903.19
2023-02-18T09:32:08.305Z,101894.25
2023-02-18T09:34:36.392Z,101898.22
2023-02-18T09:37:03.299Z,101904.69
2023-02-18T09:39:29.991Z,101899.34
2023-02-18T09:42:02.140Z,101919.06
2023-02-18T09:44:34.473Z,101885.97
2023-02-18T09:47:06.667Z,101884.69
2023-02-18T09:49:42.603Z,101910.28
2023-02-18T09:52:32.768Z,101895.50
2023-02-18T09:55:01.605Z,101917.97
2023-02-18T09:57:41.431Z,101924.28
2023-02-18T10:00:16.913Z,101921.19
2023-02-18T10:02:55.126Z,101914.69
2023-02-18T10:05:22.994Z,101898.09
2023-02-18T10:07:53.747Z,101918.81
2023-02-18T10:10:31.044Z,101921.28
2023-02-18T10:13:01.613Z,101904.06
2023-02-18T10:15:34.127Z,101918.06
2023-02-18T10:18:01.919Z,101948.84
2023-02-18T10:20:32.220Z,101946.22
2023-02-18T10:23:02.801Z,101939.91
2023-02-18T10:25:29.767Z,101884.75
2023-02-18T10:27:59.990Z,101950.19
2023-02-18T10:31:02.210Z,101935.31
2023-02-18T10:33:48.128Z,101943.63
2023-02-18T10:36:50.279Z,101956.28
2023-02-18T10:39:35.033Z,101954.31
2023-02-18T10:42:16.277Z,101957.16
2023-02-18T10:45:05.242Z,101964.25
2023-02-18T10:47:53.502Z,101965.59
2023-02-18T10:50:31.899Z,101975.41
2023-02-18T10:53:02.923Z,101960.97
2023-02-18T10:55:40.326Z,101973.53
2023-02-18T10:58:26.879Z,101980.63
2023-02-18T11:00:54.355Z,101947.22
2023-02-18T11:03:38.508Z,101976.88
2023-02-18T11:06:06.441Z,101957.25
2023-02-18T11:08:43.848Z,101971.28
2023-02-18T11:11:40.846Z,101980.97
2023-02-18T11:14:13.726Z,101981.72
2023-02-18T11:16:46.442Z,101972.66
2023-02-18T11:19:39.419Z,101963.31
2023-02-18T11:22:08.911Z,101971.50
2023-02-18T11:24:38.884Z,101970.66
2023-02-18T11:27:14.268Z,101980.44
2023-02-18T11:29:43.831Z,101963.34
2023-02-18T11:32:12.800Z,101990.13
2023-02-18T11:34:43.211Z,101973.88
2023-02-18T11:37:18.262Z,101964.47
2023-02-18T11:39:48.343Z,101984.78
2023-02-18T11:42:21.198Z,101974.50
2023-02-18T11:44:56.247Z,101964.81
2023-02-18T11:47:33.469Z,101918.94
2023-02-18T11:50:15.363Z,101888.66
2023-02-18T11:52:45.601Z,101947.38
2023-02-18T11:55:21.930Z,101935.97
2023-02-18T11:58:07.145Z,101951.72
2023-02-18T12:00:46.297Z,101906.38
2023-02-18T12:03:37.376Z,101914.59
2023-02-18T12:06:14.375Z,101945.84
2023-02-18T12:08:56.565Z,101952.91
2023-02-18T12:11:39.398Z,101931.28
2023-02-18T12:14:12.559Z,101937.63
2023-02-18T12:17:10.336Z,101945.13
2023-02-18T12:20:06.541Z,101945.25
2023-02-18T12:22:39.238Z,101951.19
2023-02-18T12:25:20.334Z,101947.69
2023-02-18T12:27:56.204Z,101930.16
2023-02-18T12:30:47.746Z,101928.00
2023-02-18T12:33:29.682Z,101941.03
2023-02-18T12:36:02.169Z,101936.28
2023-02-18T12:38:47.586Z,101900.19
2023-02-18T12:41:29.526Z,101930.13
2023-02-18T12:43:56.183Z,101941.13
2023-02-18T12:46:52.582Z,101928.00
2023-02-18T12:49:28.176Z,101942.75
2023-02-18T12:52:32.380Z,101933.69
2023-02-18T12:55:18.345Z,101935.84
2023-02-18T12:58:05.138Z,101954.16
2023-02-18T13:00:37.686Z,101940.78
2023-02-18T13:03:27.767Z,101930.16
2023-02-18T13:05:56.817Z,101935.88
2023-02-18T13:08:47.523Z,101936.78
2023-02-18T13:11:40.282Z,101926.09
2023-02-18T13:14:21.614Z,101938.44
2023-02-18T13:16:52.615Z,101933.25
2023-02-18T13:19:27.002Z,101943.13
2023-02-18T13:21:58.785Z,101955.22
2023-02-18T13:24:37.323Z,101947.28
2023-02-18T13:27:44.033Z,101951.22
2023-02-18T13:30:19.576Z,101932.22
2023-02-18T13:33:07.941Z,101944.03
2023-02-18T13:35:44.550Z,101921.97
2023-02-18T13:38:35.035Z,101931.75
2023-02-18T13:41:02.451Z,101930.81
2023-02-18T13:43:33.204Z,101935.16
2023-02-18T13:46:14.458Z,101824.50
2023-02-18T13:48:47.636Z,101929.69
2023-02-18T13:51:35.919Z,101925.22
2023-02-18T13:54:26.718Z,101942.28
2023-02-18T13:56:55.075Z,101925.97
2023-02-18T13:59:47.573Z,101945.31
2023-02-18T14:02:20.497Z,101949.31
2023-02-18T14:04:47.365Z,101945.72
2023-02-18T14:07:33.058Z,101961.41
2023-02-18T14:10:01.549Z,101950.59
2023-02-18T14:12:33.192Z,101959.53
2023-02-18T14:15:25.300Z,101954.34
2023-02-18T14:18:07.110Z,101956.94
2023-02-18T14:20:42.160Z,101961.59
2023-02-18T14:23:40.954Z,101961.91
2023-02-18T14:26:14.125Z,101955.72
2023-02-18T14:28:45.275Z,101962.09
2023-02-18T14:31:12.115Z,101966.53
2023-02-18T14:33:50.846Z,101907.78
2023-02-18T14:36:28.548Z,101966.75
2023-02-18T14:38:59.743Z,101969.31
2023-02-18T14:41:33.083Z,101953.31
2023-02-18T14:44:18.337Z,101968.19
2023-02-18T14:47:01.173Z,101980.13
2023-02-18T14:49:52.014Z,101949.56
2023-02-18T14:52:48.749Z,101962.13
2023-02-18T14:55:22.659Z,101951.31
2023-02-18T14:57:56.292Z,101961.25
2023-02-18T15:00:32.206Z,101965.84
2023-02-18T15:03:01.768Z,101953.59
2023-02-18T15:05:30.821Z,101958.19
2023-02-18T15:08:14.845Z,101946.38
2023-02-18T15:10:46.254Z,101951.41
2023-02-18T15:13:24.088Z,101946.34
2023-02-18T15:16:06.284Z,101956.59
2023-02-18T15:18:41.456Z,101953.16
2023-02-18T15:21:18.027Z,101942.84
2023-02-18T15:23:44.775Z,101960.03
2023-02-18T15:26:17.625Z,101956.44
2023-02-18T15:29:05.056Z,101956.72
2023-02-18T15:31:39.647Z,101964.19
2023-02-18T15:34:34.023Z,101950.31
2023-02-18T15:37:02.037Z,101937.31
2023-02-18T15:39:29.491Z,101950.59
2023-02-18T15:42:00.163Z,101958.81
2023-02-18T15:44:30.478Z,101957.19
2023-02-18T15:47:03.665Z,101939.00
2023-02-18T15:49:30.914Z,101941.47
2023-02-18T15:52:02.254Z,101947.38
2023-02-18T15:54:29.876Z,101946.78
2023-02-18T15:57:00.587Z,101932.47
2023-02-18T15:59:32.592Z,101945.06
2023-02-18T16:02:08.343Z,101946.22
2023-02-18T16:04:41.147Z,101944.47
2023-02-18T16:07:23.079Z,101960.16
2023-02-18T16:09:49.810Z,101912.34
2023-02-18T16:12:30.454Z,101897.88
2023-02-18T16:14:59.321Z,101935.47
2023-02-18T16:17:29.737Z,101935.94
2023-02-18T16:20:05.218Z,101933.19
2023-02-18T16:22:32.301Z,101947.00
2023-02-18T16:25:09.177Z,101948.03
2023-02-18T16:27:38.300Z,101940.81
2023-02-18T16:30:26.266Z,101941.94
2023-02-18T16:32:54.299Z,101951.03
2023-02-18T16:35:22.874Z,101925.91
2023-02-18T16:37:52.214Z,101944.94
2023-02-18T16:40:30.875Z,101941.34
2023-02-18T16:43:02.514Z,101937.03
2023-02-18T16:45:38.489Z,101938.88
2023-02-18T16:48:06.173Z,101915.50
2023-02-18T16:50:35.630Z,101850.31
2023-02-18T16:53:02.245Z,101914.72
2023-02-18T16:55:30.767Z,101930.66
2023-02-18T16:57:57.739Z,101873.00
2023-02-18T17:00:24.513Z,101943.63
2023-02-18T17:02:56.075Z,101940.91
2023-02-18T17:05:27.712Z,101941.88
2023-02-18T17:07:58.712Z,101941.03
2023-02-18T17:10:25.312Z,101938.81
2023-02-18T17:12:51.850Z,101942.91
2023-02-18T17:15:27.835Z,101946.63
2023-02-18T17:17:54.587Z,101943.75
2023-02-18T17:20:21.280Z,101933.94
2023-02-18T17:22:47.823Z,101948.38
2023-02-18T17:25:33.816Z,101937.56
2023-02-18T17:28:01.132Z,101920.34
2023-02-18T17:30:28.330Z,101949.50
2023-02-18T17:32:55.221Z,101952.38
2023-02-18T17:35:23.738Z,101947.91
2023-02-18T17:37:53.100Z,101940.84
2023-02-18T17:40:25.580Z,101937.50
2023-02-18T17:42:54.786Z,101936.75
2023-02-18T17:45:40.167Z,101939.66
2023-02-18T17:48:06.717Z,101942.66
2023-02-18T17:50:33.260Z,101942.50
2023-02-18T17:53:02.361Z,101930.03
2023-02-18T17:55:32.715Z,101952.09
2023-02-18T17:57:59.606Z,101917.25
2023-02-18T18:00:37.596Z,101939.84
2023-02-18T18:03:07.476Z,101927.06
2023-02-18T18:05:39.662Z,101943.84
2023-02-18T18:08:09.093Z,101958.50
2023-02-18T18:10:43.879Z,101950.81
2023-02-18T18:13:37.709Z,101952.66
2023-02-18T18:16:06.771Z,101962.72
2023-02-18T18:18:36.951Z,101943.91
2023-02-18T18:21:04.622Z,101958.50
2023-02-18T18:23:32.875Z,101957.78
2023-02-18T18:25:59.835Z,101959.53
2023-02-18T18:28:27.231Z,101852.97
2023-02-18T18:30:56.173Z,101953.59
2023-02-18T18:33:28.573Z,101957.19
2023-02-18T18:35:57.081Z,101950.22
2023-02-18T18:38:25.640Z,101924.94
2023-02-18T18:40:53.825Z,101957.44
2023-02-18T18:43:32.952Z,101951.25
2023-02-18T18:46:00.303Z,101935.03
2023-02-18T18:48:27.053Z,101951.03
2023-02-18T18:50:53.858Z,101929.09
2023-02-18T18:53:26.706Z,101947.16
2023-02-18T18:55:59.016Z,101955.34
2023-02-18T18:58:25.992Z,101947.16
2023-02-18T19:00:58.521Z,101948.16
2023-02-18T19:03:26.727Z,101938.22
2023-02-18T19:05:54.142Z,101940.09
2023-02-18T19:08:20.864Z,101930.81
2023-02-18T19:10:53.242Z,101939.97
2023-02-18T19:13:23.769Z,101949.88
2023-02-18T19:16:01.905Z,101947.28
2023-02-18T19:18:29.968Z,101929.94
2023-02-18T19:20:56.603Z,101924.59
2023-02-18T19:23:23.147Z,101954.50
2023-02-18T19:25:51.945Z,101943.56
2023-02-18T19:28:20.570Z,101942.56
2023-02-18T19:30:49.691Z,101927.94
2023-02-18T19:33:19.658Z,101937.97
2023-02-18T19:35:46.269Z,101925.53
2023-02-18T19:38:15.787Z,101910.44
2023-02-18T19:40:45.639Z,101915.13
2023-02-18T19:43:12.808Z,101902.56
2023-02-18T19:45:46.063Z,101910.63
2023-02-18T19:48:15.889Z,101914.22
2023-02-18T19:50:44.997Z,101903.69
2023-02-18T19:53:12.244Z,101901.22
2023-02-18T19:55:41.116Z,101890.81
2023-02-18T19:58:07.840Z,101903.56
2023-02-18T20:00:36.821Z,101881.00
2023-02-18T20:03:03.412Z,101901.56
2023-02-18T20:05:37.339Z,101894.38
2023-02-18T20:08:06.103Z,101877.75
2023-02-18T20:10:32.935Z,101903.56
2023-02-18T20:12:59.578Z,101896.38
2023-02-18T20:15:28.719Z,101898.22
2023-02-18T20:17:55.328Z,101888.31
2023-02-18T20:20:21.941Z,101874.56
2023-02-18T20:22:49.254Z,101887.41
2023-02-18T20:25:15.943Z,101863.63
2023-02-18T20:27:58.224Z,101872.16
2023-02-18T20:30:26.910Z,101849.84
2023-02-18T20:32:55.762Z,101861.22
2023-02-18T20:35:22.381Z,101860.50
2023-02-18T20:37:48.916Z,101850.44
2023-02-18T20:40:17.971Z,101843.88
2023-02-18T20:42:44.519Z,101856.75
2023-02-18T20:45:11.064Z,101808.50
2023-02-18T20:47:39.844Z,101853.16
2023-02-18T20:50:06.811Z,101850.44
2023-02-18T20:52:34.751Z,101838.69
2023-02-18T20:55:01.490Z,101856.03
2023-02-18T20:57:28.109Z,101829.75
2023-02-18T20:59:58.415Z,101854.91
2023-02-18T21:02:25.027Z,101862.34
2023-02-18T21:04:51.603Z,101859.47
2023-02-18T21:07:18.113Z,101830.00
2023-02-18T21:09:44.658Z,101855.03
2023-02-18T21:12:11.199Z,101854.16
2023-02-18T21:14:37.834Z,101865.97
2023-02-18T21:17:04.496Z,101849.06
2023-02-18T21:19:31.171Z,101849.34
2023-02-18T21:21:57.660Z,101842.28
2023-02-18T21:24:27.542Z,101825.56
2023-02-18T21:26:54.133Z,101851.59
2023-02-18T21:29:20.738Z,101851.34
2023-02-18T21:31:47.423Z,101849.63
2023-02-18T21:34:15.219Z,101846.91
2023-02-18T21:36:43.217Z,101844.16
2023-02-18T21:39:10.814Z,101849.75
2023-02-18T21:41:40.812Z,101855.22
2023-02-18T21:44:08.300Z,101837.22
2023-02-18T21:46:36.485Z,101838.97
2023-02-18T21:49:06.217Z,101785.81
2023-02-18T21:51:59.144Z,101818.09
2023-02-18T21:54:39.830Z,101798.09
2023-02-18T21:57:11.665Z,101806.69
2023-02-18T21:59:39.591Z,101835.75
2023-02-18T22:02:10.093Z,101815.03
2023-02-18T22:04:37.493Z,101786.47
2023-02-18T22:07:04.297Z,101807.56
2023-02-18T22:09:31.178Z,101814.88
2023-02-18T22:11:57.712Z,101820.34
2023-02-18T22:14:26.840Z,101828.41
2023-02-18T22:16:53.503Z,101826.53
2023-02-18T22:19:20.222Z,101814.69
2023-02-18T22:21:49.278Z,101832.53
2023-02-18T22:24:16.916Z,101827.31
2023-02-18T22:26:46.710Z,101839.75
2023-02-18T22:29:14.588Z,101836.03
2023-02-18T22:31:41.765Z,101789.72
2023-02-18T22:34:09.118Z,101756.66
2023-02-18T22:36:35.648Z,101839.22
2023-02-18T22:39:03.088Z,101842.34
2023-02-18T22:41:32.173Z,101834.53
2023-02-18T22:44:06.587Z,101845.66
2023-02-18T22:46:35.429Z,101835.13
2023-02-18T22:49:04.296Z,101830.44
2023-02-18T22:51:38.343Z,101840.59
2023-02-18T22:54:10.568Z,101831.53
2023-02-18T22:56:37.289Z,101816.69
2023-02-18T22:59:03.880Z,101826.06
2023-02-18T23:01:33.263Z,101827.06
2023-02-18T23:04:08.167Z,101837.00
2023-02-18T23:06:38.316Z,101826.22
2023-02-18T23:09:07.003Z,101825.34
2023-02-18T23:11:34.286Z,101828.94
2023-02-18T23:14:19.032Z,101816.81
2023-02-18T23:17:06.208Z,101826.59
2023-02-18T23:19:36.504Z,101828.59
2023-02-18T23:22:03.765Z,101832.06
2023-02-18T23:24:33.550Z,101817.19
2023-02-18T23:27:00.261Z,101827.50
2023-02-18T23:29:29.643Z,101806.44
2023-02-18T23:31:56.278Z,101832.97
2023-02-18T23:34:22.917Z,101836.91
2023-02-18T23:36:49.563Z,101830.59
2023-02-18T23:39:20.076Z,101827.09
2023-02-18T23:41:49.994Z,101831.84
2023-02-18T23:44:21.108Z,101827.66
2023-02-18T23:46:48.090Z,101824.56
2023-02-18T23:49:19.693Z,101818.97
2023-02-18T23:51:48.484Z,101824.41
2023-02-18T23:54:17.656Z,101821.94
2023-02-18T23:56:47.951Z,101812.28
2023-02-18T23:59:14.690Z,101839.13
